Time;durP1;ratioP1;P1;durP2;ratioP2;P2;SDS_P1;SDS_P2;PMS_P1;PMS_P2;Temp;Humidity;BMP_temperature;BMP_pressure;BME280_temperature;BME280_humidity;BME280_pressure;Samples;Min_cycle;Max_cycle;Signal;HPM_P1;HPM_P2
2021/07/19 00:01:57;;;;;;;7.75;3.55;;;;;;;17.31;74.97;102272.91;5091015;28;20050;-49
2021/07/19 00:04:24;;;;;;;10.70;4.03;;;;;;;17.33;75.23;102270.13;5091372;28;20051;-48
2021/07/19 00:06:51;;;;;;;7.53;3.65;;;;;;;17.33;75.25;102263.03;5092378;28;20055;-48
2021/07/19 00:09:19;;;;;;;8.13;4.10;;;;;;;17.30;75.23;102254.41;5089877;28;20502;-49
2021/07/19 00:11:46;;;;;;;8.80;3.75;;;;;;;17.27;75.15;102254.63;5089084;28;20036;-50
2021/07/19 00:14:12;;;;;;;9.52;3.90;;;;;;;17.15;75.47;102251.91;5092064;28;20048;-47
2021/07/19 00:16:39;;;;;;;9.07;4.00;;;;;;;17.09;75.58;102259.47;5091172;28;20044;-48
2021/07/19 00:19:06;;;;;;;11.65;3.80;;;;;;;17.07;75.87;102259.56;5088832;28;20279;-51
2021/07/19 00:21:33;;;;;;;8.18;3.85;;;;;;;17.03;75.87;102258.94;5090874;28;20055;-50
2021/07/19 00:24:00;;;;;;;7.03;3.53;;;;;;;17.06;75.64;102260.53;5092088;28;20056;-51
2021/07/19 00:26:27;;;;;;;8.88;3.90;;;;;;;16.87;76.82;102260.94;5092117;28;20055;-48
2021/07/19 00:28:53;;;;;;;8.68;3.97;;;;;;;17.04;76.00;102257.97;5091730;28;20089;-48
2021/07/19 00:31:21;;;;;;;9.50;4.03;;;;;;;16.97;76.08;102259.34;5088156;28;20040;-47
2021/07/19 00:33:48;;;;;;;8.68;4.10;;;;;;;16.98;75.93;102258.41;5089815;28;20071;-51
2021/07/19 00:36:15;;;;;;;10.18;4.53;;;;;;;16.96;76.10;102260.31;5089954;28;20052;-52
2021/07/19 00:38:42;;;;;;;9.05;4.32;;;;;;;17.03;75.57;102252.78;5088176;28;20520;-54
2021/07/19 00:41:11;;;;;;;9.70;4.65;;;;;;;16.96;75.97;102257.66;5073117;28;20055;-51
2021/07/19 00:43:37;;;;;;;10.07;4.28;;;;;;;16.90;76.14;102256.25;5093779;28;20040;-48
2021/07/19 00:46:04;;;;;;;8.35;3.92;;;;;;;16.89;76.31;102261.69;5093081;28;20105;-48
2021/07/19 00:48:31;;;;;;;9.73;4.72;;;;;;;16.88;76.13;102257.31;5091047;28;20459;-47
2021/07/19 00:50:58;;;;;;;9.23;4.80;;;;;;;16.85;76.52;102252.19;5092947;28;20040;-50
2021/07/19 00:53:25;;;;;;;10.73;4.40;;;;;;;16.81;76.68;102245.41;5075154;28;20056;-47
2021/07/19 00:55:55;;;;;;;8.80;4.72;;;;;;;16.76;76.73;102237.75;5091802;28;20200;-48
2021/07/19 00:58:23;;;;;;;9.18;4.50;;;;;;;16.70;76.89;102251.44;5095390;28;20040;-49
2021/07/19 01:00:53;;;;;;;12.30;4.40;;;;;;;16.67;76.95;102247.19;5077346;28;20043;-50
2021/07/19 01:03:22;;;;;;;9.68;4.30;;;;;;;16.73;76.55;102251.25;5095266;28;20052;-49
2021/07/19 01:05:50;;;;;;;10.52;4.40;;;;;;;16.67;77.13;102246.38;5091844;28;20048;-48
2021/07/19 01:08:18;;;;;;;12.98;4.65;;;;;;;16.75;76.89;102246.69;5091523;28;20064;-51
2021/07/19 01:10:46;;;;;;;9.35;4.40;;;;;;;16.68;77.04;102248.06;5095030;28;20433;-51
2021/07/19 01:13:13;;;;;;;8.90;4.18;;;;;;;16.60;77.73;102261.88;5095281;28;20080;-50
2021/07/19 01:15:40;;;;;;;10.63;4.25;;;;;;;16.63;77.52;102248.38;5110705;28;20044;-52
2021/07/19 01:18:10;;;;;;;9.52;4.35;;;;;;;16.71;77.52;102248.72;5094731;28;20053;-53
2021/07/19 01:21:04;;;;;;;11.32;4.63;;;;;;;16.69;77.43;102255.94;5093263;28;20518;-49
2021/07/19 01:23:56;;;;;;;9.85;4.45;;;;;;;16.63;78.11;102255.50;5092463;28;20056;-48
2021/07/19 01:26:36;;;;;;;9.27;4.32;;;;;;;16.66;77.65;102266.78;5109775;28;20454;-48
2021/07/19 01:29:03;;;;;;;9.63;4.40;;;;;;;16.64;77.69;102258.03;5094689;28;20047;-49
2021/07/19 01:31:34;;;;;;;9.98;4.55;;;;;;;16.53;77.96;102255.28;5093450;28;20074;-47
2021/07/19 01:34:09;;;;;;;10.23;5.10;;;;;;;16.49;77.86;102257.28;5092350;28;20146;-47
2021/07/19 01:36:39;;;;;;;11.43;4.72;;;;;;;16.42;78.18;102256.00;5091115;28;20052;-49
2021/07/19 01:39:07;;;;;;;10.15;4.93;;;;;;;16.46;77.90;102256.66;5075936;28;20494;-48
2021/07/19 01:41:36;;;;;;;9.15;4.68;;;;;;;16.54;77.58;102247.22;5093259;28;20566;-47
2021/07/19 01:44:05;;;;;;;9.80;4.68;;;;;;;16.50;77.93;102240.41;5092356;28;20390;-47
2021/07/19 01:46:32;;;;;;;10.63;4.72;;;;;;;16.46;78.01;102238.06;5090437;28;20093;-46
2021/07/19 01:49:01;;;;;;;10.45;4.43;;;;;;;16.50;77.78;102227.13;5091259;28;20076;-45
2021/07/19 01:51:28;;;;;;;10.27;4.45;;;;;;;16.39;78.03;102217.25;5094200;28;20466;-48
2021/07/19 01:53:57;;;;;;;11.18;4.90;;;;;;;16.39;78.41;102213.75;5092993;28;20052;-49
2021/07/19 01:56:24;;;;;;;10.55;5.22;;;;;;;16.31;78.35;102219.56;5076577;28;20426;-46
2021/07/19 01:58:55;;;;;;;11.70;4.85;;;;;;;16.34;78.50;102222.00;5092990;28;20391;-48
2021/07/19 02:01:22;;;;;;;10.82;4.70;;;;;;;16.28;78.82;102230.41;5093128;28;20169;-51
2021/07/19 02:03:49;;;;;;;13.48;5.30;;;;;;;16.23;78.75;102220.06;5092981;28;20121;-51
2021/07/19 02:06:16;;;;;;;9.77;4.75;;;;;;;16.23;79.23;102222.72;5091888;28;20074;-50
2021/07/19 02:08:43;;;;;;;11.95;5.45;;;;;;;16.22;79.53;102217.53;5090143;28;20051;-50
2021/07/19 02:11:10;;;;;;;12.05;5.72;;;;;;;16.21;79.05;102218.47;5092715;28;20523;-49
2021/07/19 02:13:40;;;;;;;11.00;5.20;;;;;;;16.25;79.16;102209.34;5092803;28;20040;-49
2021/07/19 02:16:07;;;;;;;11.50;5.30;;;;;;;16.22;79.03;102214.88;5092508;28;20062;-49
2021/07/19 02:18:37;;;;;;;9.90;5.03;;;;;;;16.15;79.72;102225.06;5093771;28;20453;-50
2021/07/19 02:21:04;;;;;;;9.93;4.65;;;;;;;16.14;79.75;102228.69;5075518;28;20044;-50
2021/07/19 02:23:33;;;;;;;8.90;4.93;;;;;;;16.13;79.95;102220.78;5089807;28;20044;-50
2021/07/19 02:26:02;;;;;;;9.25;5.15;;;;;;;16.05;79.72;102216.03;5090404;28;20048;-52
2021/07/19 02:28:29;;;;;;;10.88;5.20;;;;;;;16.05;79.71;102218.69;5092891;28;20474;-51
2021/07/19 02:30:57;;;;;;;10.90;5.05;;;;;;;15.94;80.22;102230.00;5088002;28;20147;-50
2021/07/19 02:33:25;;;;;;;11.27;5.15;;;;;;;15.97;80.56;102231.59;5074647;28;20173;-48
2021/07/19 02:35:52;;;;;;;11.35;5.25;;;;;;;16.00;80.11;102239.34;5092048;28;20043;-49
2021/07/19 02:38:21;;;;;;;10.45;5.10;;;;;;;16.00;80.36;102236.69;5091035;28;20040;-51
2021/07/19 02:40:49;;;;;;;9.88;5.75;;;;;;;15.90;81.00;102247.06;5090069;28;20048;-52
2021/07/19 02:43:16;;;;;;;9.45;4.57;;;;;;;15.88;81.12;102247.19;5091887;28;20051;-52
2021/07/19 02:45:45;;;;;;;9.85;5.18;;;;;;;15.85;80.71;102247.34;5092206;28;20397;-50
2021/07/19 02:48:13;;;;;;;8.43;5.28;;;;;;;15.89;80.80;102248.03;5092240;28;20071;-52
2021/07/19 02:50:43;;;;;;;9.57;4.97;;;;;;;15.88;80.47;102241.00;5091649;28;20043;-50
2021/07/19 02:53:12;;;;;;;9.20;4.72;;;;;;;15.83;80.85;102246.63;5089105;28;20062;-48
2021/07/19 02:55:39;;;;;;;10.82;5.03;;;;;;;15.82;81.22;102233.47;5073429;28;20052;-48
2021/07/19 02:58:07;;;;;;;9.93;4.90;;;;;;;15.77;81.03;102240.84;5093012;28;20052;-49
2021/07/19 03:00:35;;;;;;;11.00;4.95;;;;;;;15.78;81.02;102243.38;5091321;28;20055;-49
2021/07/19 03:03:05;;;;;;;10.20;5.13;;;;;;;15.73;81.33;102245.47;5088617;28;20054;-48
2021/07/19 03:05:36;;;;;;;9.95;5.10;;;;;;;15.72;81.29;102244.63;5091623;28;20052;-48
2021/07/19 03:08:04;;;;;;;10.90;4.88;;;;;;;15.77;80.96;102246.13;5091997;28;20044;-48
2021/07/19 03:10:33;;;;;;;10.30;5.35;;;;;;;15.82;81.05;102249.38;5091818;28;20040;-49
2021/07/19 03:13:06;;;;;;;9.80;5.28;;;;;;;15.76;81.15;102244.44;5091690;28;20048;-50
2021/07/19 03:15:33;;;;;;;12.10;5.43;;;;;;;15.75;81.54;102245.38;5092628;28;20465;-53
2021/07/19 03:18:03;;;;;;;10.13;5.05;;;;;;;15.66;81.81;102245.03;5086719;28;20048;-52
2021/07/19 03:20:30;;;;;;;9.63;4.95;;;;;;;15.60;81.91;102242.78;5089974;28;20043;-47
2021/07/19 03:22:58;;;;;;;11.23;5.35;;;;;;;15.59;82.03;102243.72;5089539;28;20048;-49
2021/07/19 03:25:26;;;;;;;11.73;5.57;;;;;;;15.62;81.78;102247.97;5088750;28;20048;-51
2021/07/19 03:27:53;;;;;;;12.25;5.03;;;;;;;15.57;81.83;102250.06;5092537;28;20056;-48
2021/07/19 03:30:20;;;;;;;12.18;5.28;;;;;;;15.50;81.99;102245.19;5091470;28;20101;-48
2021/07/19 03:32:49;;;;;;;10.80;4.95;;;;;;;15.54;82.08;102244.03;5091319;28;20051;-47
2021/07/19 03:35:22;;;;;;;11.45;5.32;;;;;;;15.54;82.45;102240.50;5091323;28;20044;-48
2021/07/19 03:37:50;;;;;;;11.85;5.13;;;;;;;15.55;82.56;102239.56;5091866;28;20048;-47
2021/07/19 03:40:23;;;;;;;11.90;5.25;;;;;;;15.48;82.23;102248.88;5090830;28;20076;-49
2021/07/19 03:42:52;;;;;;;10.43;4.90;;;;;;;15.46;82.80;102245.44;5088004;28;20402;-50
2021/07/19 03:45:19;;;;;;;10.68;5.40;;;;;;;15.43;82.65;102254.44;5089524;28;20051;-50
2021/07/19 03:47:46;;;;;;;8.98;4.50;;;;;;;15.45;82.80;102255.22;5091446;28;20052;-47
2021/07/19 03:50:14;;;;;;;12.15;5.22;;;;;;;15.44;83.07;102257.97;5091001;28;20132;-47
2021/07/19 03:52:41;;;;;;;11.85;4.97;;;;;;;15.35;83.20;102252.31;5091218;28;20533;-49
2021/07/19 03:55:10;;;;;;;12.48;5.10;;;;;;;15.37;83.17;102254.84;5090923;28;20487;-51
2021/07/19 03:57:41;;;;;;;9.77;5.40;;;;;;;15.43;82.82;102251.78;5091039;28;20048;-51
2021/07/19 04:00:15;;;;;;;11.75;4.90;;;;;;;15.39;83.31;102250.28;5092363;28;20048;-48
2021/07/19 04:02:44;;;;;;;9.68;5.35;;;;;;;15.40;83.14;102259.09;5091203;28;20040;-46
2021/07/19 04:05:15;;;;;;;;;;;;;;;15.40;83.17;102259.09;5091597;28;20052;-49
2021/07/19 04:07:45;;;;;;;10.80;5.18;;;;;;;15.41;83.36;102260.81;5092098;28;19955;-48
2021/07/19 04:10:14;;;;;;;11.48;4.95;;;;;;;15.40;83.68;102257.28;5090798;28;20048;-47
2021/07/19 04:12:47;;;;;;;11.57;5.13;;;;;;;15.35;83.66;102252.31;5071461;28;20513;-51
2021/07/19 04:15:14;;;;;;;13.68;5.30;;;;;;;15.34;83.77;102255.88;5091086;28;20059;-48
2021/07/19 04:17:45;;;;;;;13.18;4.90;;;;;;;15.42;83.97;102251.91;5092348;28;20052;-52
2021/07/19 04:20:14;;;;;;;10.40;4.85;;;;;;;15.38;83.58;102256.56;5094492;28;20040;-49
2021/07/19 04:22:43;;;;;;;15.40;5.65;;;;;;;15.39;83.83;102260.88;5095940;28;20044;-52
2021/07/19 04:25:11;;;;;;;12.30;5.55;;;;;;;15.41;83.95;102247.56;5094622;28;20522;-52
2021/07/19 04:27:40;;;;;;;11.02;5.70;;;;;;;15.42;83.63;102252.75;5091878;28;20060;-51
2021/07/19 04:30:08;;;;;;;11.75;4.53;;;;;;;15.47;83.65;102249.81;5093712;28;20039;-49
2021/07/19 04:32:39;;;;;;;10.60;5.03;;;;;;;15.48;83.63;102255.00;5095805;28;20044;-49
2021/07/19 04:35:26;;;;;;;9.32;5.25;;;;;;;15.51;83.79;102251.31;5095657;28;20059;-45
2021/07/19 04:37:53;;;;;;;10.32;5.40;;;;;;;15.51;84.11;102261.91;5094882;28;20059;-47
2021/07/19 04:40:21;;;;;;;17.00;5.72;;;;;;;15.46;84.18;102262.22;5093206;28;20113;-46
2021/07/19 04:42:48;;;;;;;15.57;5.60;;;;;;;15.51;83.77;102261.91;5092218;28;20044;-47
2021/07/19 04:45:19;;;;;;;14.70;5.70;;;;;;;15.57;83.89;102256.25;5094571;28;20040;-49
2021/07/19 04:47:47;;;;;;;17.58;5.93;;;;;;;15.56;84.16;102259.84;5095492;28;20055;-48
2021/07/19 04:50:16;;;;;;;15.95;6.05;;;;;;;15.57;83.92;102261.53;5095487;28;20044;-47
2021/07/19 04:52:44;;;;;;;17.17;5.90;;;;;;;15.61;83.96;102265.69;5094503;28;20467;-49
2021/07/19 04:55:13;;;;;;;17.60;6.72;;;;;;;15.63;84.38;102260.28;5095486;28;20043;-49
2021/07/19 04:57:42;;;;;;;15.32;5.95;;;;;;;15.68;83.99;102260.84;5095508;28;20051;-45
2021/07/19 05:00:10;;;;;;;18.38;5.80;;;;;;;15.77;83.86;102260.25;5095332;28;20063;-48
2021/07/19 05:02:40;;;;;;;17.75;5.38;;;;;;;15.78;83.42;102269.91;5095467;28;20036;-47
2021/07/19 05:05:11;;;;;;;18.83;5.25;;;;;;;15.78;83.36;102269.91;5094186;28;20086;-51
2021/07/19 05:07:39;;;;;;;18.75;5.20;;;;;;;15.84;83.16;102269.56;5094064;28;20413;-49
2021/07/19 05:10:09;;;;;;;16.08;5.53;;;;;;;15.84;83.54;102271.34;5075037;28;20490;-46
2021/07/19 05:12:37;;;;;;;18.70;5.78;;;;;;;15.93;83.74;102270.75;5091318;28;20055;-50
2021/07/19 05:15:05;;;;;;;14.18;5.15;;;;;;;15.96;83.85;102269.69;5095300;28;20422;-49
2021/07/19 05:17:32;;;;;;;14.30;5.60;;;;;;;15.99;83.73;102261.53;5110529;28;20101;-48
2021/07/19 05:19:59;;;;;;;12.10;5.15;;;;;;;16.05;83.77;102267.28;5076926;28;20060;-52
2021/07/19 05:22:26;;;;;;;11.55;4.75;;;;;;;16.08;83.89;102266.22;5093494;28;20040;-51
2021/07/19 05:24:57;;;;;;;10.80;4.97;;;;;;;16.11;84.31;102273.13;5094335;28;20059;-48
2021/07/19 05:27:24;;;;;;;12.80;5.47;;;;;;;16.19;82.90;102276.97;5090581;28;20150;-49
2021/07/19 05:29:51;;;;;;;10.57;4.97;;;;;;;16.25;82.59;102278.38;5091231;28;20440;-48
2021/07/19 05:32:18;;;;;;;9.18;4.55;;;;;;;16.33;82.57;102272.56;5093330;28;20387;-48
2021/07/19 05:34:45;;;;;;;8.18;4.40;;;;;;;16.37;81.87;102261.66;5094885;28;20382;-49
2021/07/19 05:37:12;;;;;;;10.63;4.47;;;;;;;16.38;81.75;102262.47;5094350;28;20064;-53
2021/07/19 05:39:39;;;;;;;10.77;5.20;;;;;;;16.43;81.78;102262.16;5076761;28;20109;-49
2021/07/19 05:42:05;;;;;;;11.02;4.47;;;;;;;16.50;81.66;102274.94;5093281;28;20051;-48
2021/07/19 05:44:32;;;;;;;11.05;5.75;;;;;;;16.52;81.13;102278.34;5076375;28;20456;-52
2021/07/19 05:47:01;;;;;;;13.13;5.10;;;;;;;16.58;81.46;102274.41;5094521;28;20556;-49
2021/07/19 05:49:28;;;;;;;10.98;4.78;;;;;;;16.67;81.48;102275.56;5092965;28;20147;-47
2021/07/19 05:51:55;;;;;;;8.85;4.22;;;;;;;16.69;81.21;102269.22;5109256;28;20054;-50
2021/07/19 05:54:22;;;;;;;11.63;5.07;;;;;;;16.72;81.29;102263.69;5092001;28;20072;-51
2021/07/19 05:56:49;;;;;;;10.75;5.13;;;;;;;16.83;80.87;102270.06;5091015;28;20801;-51
2021/07/19 05:59:15;;;;;;;11.63;5.13;;;;;;;16.85;81.25;102269.00;5094064;28;20067;-51
2021/07/19 06:01:42;;;;;;;11.98;4.75;;;;;;;16.94;81.05;102266.69;5088867;28;20453;-49
2021/07/19 06:04:09;;;;;;;9.80;4.60;;;;;;;17.00;81.13;102271.56;5090407;28;20054;-49
2021/07/19 06:06:36;;;;;;;9.27;4.80;;;;;;;17.04;81.22;102260.63;5092864;28;20043;-50
2021/07/19 06:09:03;;;;;;;10.38;5.10;;;;;;;17.15;80.88;102267.84;5093001;28;20545;-51
2021/07/19 06:11:30;;;;;;;13.95;5.38;;;;;;;17.23;80.31;102264.63;5106971;28;20055;-51
2021/07/19 06:13:57;;;;;;;13.25;4.85;;;;;;;17.32;79.74;102269.28;5092711;28;20060;-52
2021/07/19 06:16:24;;;;;;;13.40;5.10;;;;;;;17.39;80.02;102275.03;5109336;28;20056;-49
2021/07/19 06:18:50;;;;;;;12.52;5.03;;;;;;;17.43;80.40;102278.34;5093690;28;20048;-50
2021/07/19 06:21:17;;;;;;;11.32;5.15;;;;;;;17.50;79.49;102279.59;5093721;28;20426;-48
2021/07/19 06:23:44;;;;;;;9.07;5.30;;;;;;;17.54;79.26;102276.56;5093970;28;20513;-49
2021/07/19 06:26:11;;;;;;;10.15;4.80;;;;;;;17.61;79.41;102276.16;5093781;28;20482;-52
2021/07/19 06:28:39;;;;;;;10.88;5.18;;;;;;;17.69;78.95;102271.13;5093785;28;20098;-50
2021/07/19 06:31:06;;;;;;;13.13;5.20;;;;;;;17.73;79.50;102268.09;5093577;28;20498;-51
2021/07/19 06:33:33;;;;;;;11.32;5.65;;;;;;;17.78;79.07;102265.13;5093116;28;20497;-51
2021/07/19 06:35:59;;;;;;;10.75;4.80;;;;;;;17.78;79.04;102267.78;5090727;28;20097;-49
2021/07/19 06:38:27;;;;;;;10.93;4.88;;;;;;;17.81;79.50;102264.06;5091474;28;20048;-51
2021/07/19 06:40:54;;;;;;;11.85;5.38;;;;;;;17.83;79.00;102259.44;5092184;28;20064;-49
2021/07/19 06:43:21;;;;;;;30.27;7.50;;;;;;;17.86;78.89;102267.19;5093216;28;20044;-50
2021/07/19 06:45:48;;;;;;;43.70;8.38;;;;;;;17.95;78.59;102266.56;5092034;28;20051;-53
2021/07/19 06:48:15;;;;;;;14.55;5.28;;;;;;;18.06;78.40;102279.94;5093181;28;20052;-52
2021/07/19 06:50:42;;;;;;;12.40;4.72;;;;;;;18.20;78.37;102267.38;5091225;28;20441;-50
2021/07/19 06:53:09;;;;;;;11.55;5.45;;;;;;;18.35;77.36;102266.25;5090110;28;20054;-51
2021/07/19 06:55:36;;;;;;;13.60;5.70;;;;;;;18.43;78.37;102262.97;5107591;28;20491;-50
2021/07/19 06:58:03;;;;;;;13.02;5.72;;;;;;;18.54;78.18;102272.81;5091776;28;20494;-51
2021/07/19 07:00:29;;;;;;;12.00;5.55;;;;;;;18.65;76.65;102274.66;5108508;28;20046;-50
2021/07/19 07:02:56;;;;;;;11.93;5.90;;;;;;;18.77;76.62;102271.03;5087892;28;20070;-50
2021/07/19 07:05:23;;;;;;;12.75;5.10;;;;;;;18.86;75.70;102278.31;5091363;28;20082;-52
2021/07/19 07:07:50;;;;;;;10.57;4.82;;;;;;;18.90;75.68;102281.63;5092992;28;20720;-49
2021/07/19 07:10:21;;;;;;;14.07;6.28;;;;;;;18.99;75.73;102278.25;5093281;28;20074;-50
2021/07/19 07:12:48;;;;;;;12.23;5.93;;;;;;;19.07;74.87;102280.31;5105946;28;20716;-50
2021/07/19 07:15:15;;;;;;;11.80;5.30;;;;;;;19.13;73.98;102277.16;5090327;28;20056;-52
2021/07/19 07:17:41;;;;;;;13.38;5.43;;;;;;;19.17;74.00;102288.41;5092739;28;20044;-51
2021/07/19 07:20:10;;;;;;;13.00;5.55;;;;;;;19.24;73.07;102292.31;5091626;28;20044;-50
2021/07/19 07:22:37;;;;;;;11.20;5.63;;;;;;;19.15;73.56;102293.03;5091027;28;20051;-54
2021/07/19 07:25:05;;;;;;;11.02;4.78;;;;;;;19.21;72.81;102290.72;5088847;28;20418;-52
2021/07/19 07:27:34;;;;;;;11.32;4.90;;;;;;;19.27;72.35;102286.72;5092428;28;20036;-50
2021/07/19 07:30:07;;;;;;;12.48;4.97;;;;;;;19.33;71.38;102282.72;5092891;28;20142;-53
2021/07/19 07:32:35;;;;;;;9.27;4.93;;;;;;;19.29;70.57;102287.44;5092390;28;20051;-52
2021/07/19 07:35:03;;;;;;;10.45;5.30;;;;;;;19.37;71.38;102285.03;5108020;28;20048;-53
2021/07/19 07:37:34;;;;;;;10.48;4.80;;;;;;;19.44;70.60;102282.69;5072646;28;20101;-50
2021/07/19 07:40:02;;;;;;;11.98;5.50;;;;;;;19.55;70.56;102285.38;5088367;28;20143;-52
2021/07/19 07:42:33;;;;;;;10.48;5.03;;;;;;;19.63;70.36;102290.06;5092400;28;20038;-49
2021/07/19 07:45:00;;;;;;;10.60;4.95;;;;;;;19.71;69.18;102294.78;5092370;28;20102;-51
2021/07/19 07:47:27;;;;;;;10.32;4.72;;;;;;;19.74;69.14;102295.41;5092170;28;20055;-51
2021/07/19 07:49:54;;;;;;;12.20;5.18;;;;;;;19.96;67.39;102288.31;5091149;28;20153;-49
2021/07/19 07:52:21;;;;;;;9.95;5.25;;;;;;;19.99;67.71;102288.06;5093482;28;20063;-47
2021/07/19 07:54:48;;;;;;;12.15;5.18;;;;;;;19.97;66.85;102281.16;5096265;28;20043;-48
2021/07/19 07:57:15;;;;;;;11.43;4.60;;;;;;;20.09;66.18;102277.47;5096478;28;20052;-48
2021/07/19 07:59:42;;;;;;;9.80;4.65;;;;;;;20.08;64.98;102287.31;5077200;28;20458;-50
2021/07/19 08:02:09;;;;;;;13.10;5.38;;;;;;;20.11;64.49;102286.22;5092311;28;20078;-50
2021/07/19 08:04:38;;;;;;;10.20;4.65;;;;;;;20.16;63.38;102292.00;5095376;28;20505;-49
2021/07/19 08:07:05;;;;;;;10.57;4.93;;;;;;;20.20;63.18;102293.44;5095145;28;20085;-50
2021/07/19 08:09:32;;;;;;;9.15;4.47;;;;;;;20.31;62.91;102284.53;5095325;28;20048;-50
2021/07/19 08:11:59;;;;;;;8.77;4.55;;;;;;;20.39;63.20;102286.56;5096356;28;20090;-51
2021/07/19 08:14:27;;;;;;;10.73;4.45;;;;;;;20.46;61.89;102278.88;5094921;28;20503;-51
2021/07/19 08:16:54;;;;;;;9.57;4.75;;;;;;;20.47;62.50;102277.91;5096200;28;20085;-51
2021/07/19 08:19:22;;;;;;;138.52;24.27;;;;;;;20.58;61.62;102278.66;5111741;28;20052;-51
2021/07/19 08:21:52;;;;;;;13.63;5.85;;;;;;;20.67;59.27;102284.19;5095151;28;20129;-48
2021/07/19 08:24:19;;;;;;;10.43;4.95;;;;;;;20.81;60.69;102277.72;5095945;28;20040;-46
2021/07/19 08:26:46;;;;;;;8.80;4.47;;;;;;;20.93;60.31;102272.13;5095930;28;20486;-51
2021/07/19 08:29:13;;;;;;;9.75;4.53;;;;;;;20.96;59.71;102270.19;5094825;28;20062;-49
2021/07/19 08:31:44;;;;;;;9.80;4.72;;;;;;;21.05;60.15;102262.19;5091804;28;20102;-47
2021/07/19 08:34:11;;;;;;;9.02;4.97;;;;;;;21.14;58.51;102267.72;5094934;28;20090;-49
2021/07/19 08:36:38;;;;;;;12.02;5.40;;;;;;;21.22;57.91;102265.22;5092982;28;20040;-49
2021/07/19 08:39:05;;;;;;;9.38;4.72;;;;;;;21.19;58.60;102260.97;5093289;28;20403;-47
2021/07/19 08:41:32;;;;;;;9.73;5.05;;;;;;;21.32;57.74;102265.25;5094384;28;20055;-51
2021/07/19 08:44:04;;;;;;;9.43;5.00;;;;;;;21.32;58.21;102262.56;5094308;28;20105;-50
2021/07/19 08:46:31;;;;;;;8.98;4.97;;;;;;;21.16;57.98;102271.09;5095646;28;20073;-52
2021/07/19 08:48:58;;;;;;;9.15;5.00;;;;;;;21.14;58.10;102268.56;5094133;28;20085;-49
2021/07/19 08:51:25;;;;;;;13.90;6.07;;;;;;;21.22;59.10;102266.03;5095167;28;20502;-51
2021/07/19 08:53:52;;;;;;;10.27;5.60;;;;;;;21.35;58.03;102276.53;5093482;28;20105;-50
2021/07/19 08:56:19;;;;;;;9.45;5.47;;;;;;;21.28;58.44;102278.03;5093944;28;20540;-51
2021/07/19 08:58:47;;;;;;;10.75;5.07;;;;;;;21.30;58.45;102280.56;5094127;28;20510;-50
2021/07/19 09:01:13;;;;;;;9.32;5.35;;;;;;;21.35;58.52;102276.53;5077595;28;20048;-51
2021/07/19 09:03:41;;;;;;;9.98;5.13;;;;;;;21.34;58.40;102274.00;5091922;28;20098;-50
2021/07/19 09:06:12;;;;;;;10.90;5.45;;;;;;;21.38;59.01;102276.25;5091972;28;20055;-50
2021/07/19 09:09:05;;;;;;;9.90;5.18;;;;;;;21.37;57.54;102269.19;5094994;28;20131;-51
2021/07/19 09:11:31;;;;;;;9.45;5.00;;;;;;;21.35;57.27;102270.31;5093970;28;20113;-50
2021/07/19 09:14:05;;;;;;;10.10;5.40;;;;;;;21.51;56.35;102267.13;5094967;28;20544;-51
2021/07/19 09:16:47;;;;;;;12.02;5.45;;;;;;;21.50;56.67;102270.78;5094426;28;20048;-52
2021/07/19 09:19:16;;;;;;;10.15;5.03;;;;;;;21.51;57.37;102265.28;5092463;28;20040;-52
2021/07/19 09:21:46;;;;;;;9.25;5.38;;;;;;;21.51;56.25;102261.75;5093841;28;20047;-52
2021/07/19 09:24:21;;;;;;;9.88;5.30;;;;;;;21.56;56.49;102267.59;5076892;28;20042;-50
2021/07/19 09:26:50;;;;;;;12.30;5.80;;;;;;;21.71;56.90;102265.34;5091535;28;20048;-50
2021/07/19 09:29:19;;;;;;;10.10;5.30;;;;;;;21.82;57.06;102267.91;5093041;28;20380;-49
2021/07/19 09:31:57;;;;;;;9.75;5.40;;;;;;;21.75;56.16;102256.91;5094897;28;20536;-53
2021/07/19 09:34:26;;;;;;;11.50;5.78;;;;;;;21.82;57.21;102261.72;5094451;28;20490;-52
2021/07/19 09:37:09;;;;;;;11.45;5.75;;;;;;;21.84;55.93;102257.91;5093405;28;20044;-49
2021/07/19 09:39:46;;;;;;;9.63;5.60;;;;;;;21.65;57.26;102253.38;5093260;28;20108;-51
2021/07/19 09:42:15;;;;;;;11.18;5.78;;;;;;;21.80;56.28;102256.50;5093231;28;20474;-52
2021/07/19 09:44:51;;;;;;;9.45;5.53;;;;;;;21.98;56.05;102253.97;5092232;28;20059;-50
2021/07/19 09:47:17;;;;;;;10.57;6.15;;;;;;;22.04;56.97;102236.47;5092439;28;20048;-52
2021/07/19 09:49:44;;;;;;;10.32;6.30;;;;;;;22.09;56.49;102239.56;5090860;28;20582;-52
2021/07/19 09:52:12;;;;;;;11.05;5.90;;;;;;;22.08;56.38;102241.38;5091700;28;20390;-51
2021/07/19 09:54:42;;;;;;;8.85;5.47;;;;;;;22.22;56.55;102236.59;5094298;28;20395;-50
2021/07/19 09:57:10;;;;;;;12.50;5.90;;;;;;;22.33;55.55;102230.22;5091772;28;20105;-51
2021/07/19 09:59:49;;;;;;;13.55;6.07;;;;;;;22.48;56.25;102236.00;5091556;28;20051;-51
2021/07/19 10:02:35;;;;;;;11.43;6.07;;;;;;;22.43;55.46;102244.50;5094059;28;20055;-51
2021/07/19 10:05:04;;;;;;;11.77;6.07;;;;;;;22.47;55.20;102234.31;5093999;28;20036;-51
2021/07/19 10:07:31;;;;;;;12.30;5.78;;;;;;;22.67;54.53;102235.94;5092325;28;20046;-50
2021/07/19 10:10:03;;;;;;;11.10;6.00;;;;;;;22.68;54.64;102226.91;5107024;28;20510;-52
2021/07/19 10:12:30;;;;;;;33.58;9.45;;;;;;;22.60;54.60;102229.47;5093822;28;20048;-50
2021/07/19 10:14:58;;;;;;;12.32;6.57;;;;;;;22.56;55.80;102228.09;5093810;28;20051;-50
2021/07/19 10:17:44;;;;;;;12.68;6.10;;;;;;;22.84;53.85;102226.31;5076877;28;20051;-50
2021/07/19 10:20:12;;;;;;;11.45;5.50;;;;;;;22.69;54.88;102228.63;5091348;28;20376;-49
2021/07/19 10:22:38;;;;;;;11.18;5.65;;;;;;;22.85;54.09;102224.44;5075288;28;20048;-51
2021/07/19 10:25:06;;;;;;;11.05;5.68;;;;;;;23.06;53.60;102214.31;5072649;28;20052;-52
2021/07/19 10:27:36;;;;;;;10.05;5.40;;;;;;;23.34;53.72;102221.53;5073261;28;20436;-52
2021/07/19 10:30:06;;;;;;;11.82;5.90;;;;;;;23.62;52.71;102225.03;5074840;28;20514;-51
2021/07/19 10:32:36;;;;;;;10.95;5.90;;;;;;;23.89;51.69;102216.06;5087934;28;20499;-51
2021/07/19 10:35:05;;;;;;;10.77;6.30;;;;;;;23.86;50.80;102216.34;5091360;28;20044;-48
2021/07/19 10:37:31;;;;;;;11.75;6.00;;;;;;;23.98;50.53;102210.75;5093218;28;20112;-52
2021/07/19 10:39:59;;;;;;;10.32;5.90;;;;;;;23.66;51.83;102212.97;5093194;28;20048;-50
2021/07/19 10:42:34;;;;;;;12.02;6.15;;;;;;;23.61;53.04;102220.66;5092097;28;20056;-48
2021/07/19 10:45:16;;;;;;;10.90;6.18;;;;;;;23.62;52.53;102216.97;5093444;28;20101;-47
2021/07/19 10:47:54;;;;;;;10.38;6.50;;;;;;;23.69;51.67;102215.34;5092088;28;20044;-49
2021/07/19 10:50:25;;;;;;;11.60;6.38;;;;;;;23.68;52.32;102213.66;5091128;28;20048;-49
2021/07/19 10:52:55;;;;;;;12.45;6.70;;;;;;;23.49;53.07;102208.44;5091093;28;20044;-53
2021/07/19 10:55:30;;;;;;;10.57;6.10;;;;;;;23.40;53.26;102211.06;5091621;28;20048;-51
2021/07/19 10:58:56;;;;;;;13.75;6.68;;;;;;;23.48;53.46;102202.25;5091685;28;20109;-49
2021/07/19 11:01:25;;;;;;;10.50;6.20;;;;;;;23.67;53.45;102212.00;5075461;28;20052;-52
2021/07/19 11:03:54;;;;;;;10.02;6.10;;;;;;;23.63;51.69;102207.94;5090378;28;20051;-52
2021/07/19 11:06:31;;;;;;;11.88;5.95;;;;;;;23.57;52.97;102204.03;5092493;28;20518;-50
2021/07/19 11:08:58;;;;;;;14.05;6.40;;;;;;;23.60;52.77;102200.16;5091571;28;20051;-52
2021/07/19 11:11:28;;;;;;;10.93;5.95;;;;;;;23.72;53.35;102208.84;5091862;28;20052;-49
2021/07/19 11:14:04;;;;;;;10.35;5.90;;;;;;;23.68;53.30;102200.22;5089917;28;20044;-54
2021/07/19 11:16:42;;;;;;;10.63;5.97;;;;;;;23.93;50.80;102195.13;5091922;28;20532;-51
2021/07/19 11:19:09;;;;;;;10.32;5.78;;;;;;;23.95;50.72;102190.44;5092296;28;20044;-52
2021/07/19 11:21:36;;;;;;;9.93;5.82;;;;;;;23.99;51.04;102194.50;5090538;28;20044;-53
2021/07/19 11:24:19;;;;;;;9.55;5.85;;;;;;;24.11;51.25;102192.41;5089452;28;20121;-51
2021/07/19 11:26:48;;;;;;;11.48;6.10;;;;;;;24.17;51.14;102191.75;5073282;28;20062;-52
2021/07/19 11:29:30;;;;;;;9.95;6.00;;;;;;;24.21;50.33;102190.44;5092648;28;20089;-51